Morton S Bouchard Jr — WSE9678 — position and weather

sailwx.info

Track history (hours):
 
Tides and Currents Weather Stations Pressure Air Temp Water Temp Dewpoint Dewpoint Depression Visibility Wind Speed Wind Dir Waves Ship Positions

Morton S Bouchard Jr

Owner: BOUCHARD TRANSPORTATION CO INC, MELVILLE, NY. More information available from US FCC via Universal Licensing System and Coast Guard Vessel Documentation Center.

Last reported at 2016-Jul-26 07:33 UTC. Time now 2016-Jul-26 08:22 UTC.
Position N 40°39' W 074°10'.

Length 33 m; draft 6.3 m.

Type: Tug. MMSI: 367006550.

Date/timePositionNaut miles runAvg speedWind from/ knotsBaromVisibWave heightAir tempDewpointWater temp
2016-Jul-26 07:33N 40°39' W 074°10'7 3.4
2016-Jul-26 05:32N 40°33' W 074°15'2 1.1
2016-Jul-26 03:25N 40°35' W 074°13'6 6.5
2016-Jul-26 02:33N 40°39' W 074°08'6 6.3
2016-Jul-26 01:33N 40°41' W 074°00'1 1.2
2016-Jul-26 00:33N 40°41' W 074°01'1 1.3
2016-Jul-25 23:33N 40°40' W 074°02'0 0.0
2016-Jul-25 22:33N 40°40' W 074°02'0 0.0
2016-Jul-25 21:33N 40°40' W 074°02'0 0.0
2016-Jul-25 20:34N 40°40' W 074°02'8 7.8
2016-Jul-25 19:31N 40°37' W 074°12'8 0.8
2016-Jul-25 09:33N 40°29' W 074°15'0 0.0
2016-Jul-25 08:26N 40°29' W 074°15'0 0.0
2016-Jul-25 07:33N 40°29' W 074°15'0 0.0
2016-Jul-25 06:33N 40°29' W 074°15'0 0.0
2016-Jul-25 05:33N 40°30' W 074°15'0 0.1
2016-Jul-25 04:33N 40°30' W 074°15'0 0.0
2016-Jul-25 03:31N 40°30' W 074°15'0 0.0
2016-Jul-25 02:29N 40°30' W 074°15'10 0.8
2016-Jul-24 13:28N 40°39' W 074°10'8 8.4
2016-Jul-24 12:33N 40°42' W 074°00'9 0.4
2016-Jul-23 11:30N 40°48' W 073°52'6 5.9
2016-Jul-23 10:33N 40°45' W 073°58'5 5.0
2016-Jul-23 09:33N 40°40' W 074°02'1 0.6
2016-Jul-23 08:33N 40°40' W 074°02'0 0.0
2016-Jul-23 07:33N 40°40' W 074°02'0 0.5
2016-Jul-23 06:33N 40°40' W 074°03'8 1.9
2016-Jul-23 02:20N 40°36' W 074°12'6 7.2
2016-Jul-23 01:33N 40°39' W 074°06'0 0.3
2016-Jul-23 00:33N 40°39' W 074°06'0 0.0
2016-Jul-22 23:33N 40°39' W 074°06'0 0.0
2016-Jul-22 22:33N 40°39' W 074°06'0 0.0
2016-Jul-22 21:33N 40°39' W 074°06'1 0.7
2016-Jul-22 20:33N 40°39' W 074°07'0 0.0
2016-Jul-22 19:33N 40°39' W 074°07'0 0.0
2016-Jul-22 18:33N 40°39' W 074°07'0 0.0
2016-Jul-22 17:33N 40°39' W 074°07'0 0.0
2016-Jul-22 16:33N 40°39' W 074°07'5 4.6
2016-Jul-22 15:33N 40°37' W 074°12'4 1.6
2016-Jul-22 13:15N 40°33' W 074°13'5 7.0
2016-Jul-22 12:33N 40°38' W 074°12'7 7.0
2016-Jul-22 11:33N 40°40' W 074°03'7 7.1
2016-Jul-22 10:33N 40°46' W 073°57'18 4.3
2016-Jul-22 06:25N 40°56' W 073°37'14 0.5
2016-Jul-21 03:34N 40°48' W 073°53'6 6.0
2016-Jul-21 02:33N 40°44' W 073°58'6 6.1
2016-Jul-21 01:34N 40°39' W 074°03'1 0.8
2016-Jul-21 00:33N 40°38' W 074°03'4 4.3
2016-Jul-20 23:33N 40°39' W 074°09'5 4.9
2016-Jul-20 22:33N 40°35' W 074°13'3 1.4
2016-Jul-20 20:33N 40°37' W 074°12'4 4.0
2016-Jul-20 19:33N 40°39' W 074°07'0 0.0
2016-Jul-20 18:33N 40°39' W 074°07'0 0.0
2016-Jul-20 17:33N 40°39' W 074°07'0 0.0
2016-Jul-20 16:33N 40°39' W 074°07'0 0.0
2016-Jul-20 15:33N 40°39' W 074°07'0 0.0
2016-Jul-20 14:33N 40°39' W 074°07'4 4.4
2016-Jul-20 13:32N 40°36' W 074°12'1 0.5
2016-Jul-20 10:32N 40°35' W 074°13'0 0.1
2016-Jul-20 05:31N 40°35' W 074°12'5 5.6
2016-Jul-20 04:33N 40°39' W 074°07'4 4.0
2016-Jul-20 03:33N 40°40' W 074°02'8 7.7
2016-Jul-20 02:33N 40°47' W 073°56'172 6.3
2016-Jul-18 23:19N 42°13' W 070°39'6 8.0
2016-Jul-18 22:33N 42°18' W 070°44'8 7.9
2016-Jul-18 21:33N 42°23' W 070°52'6 5.7
2016-Jul-18 20:33N 42°20' W 070°59'4 3.8
2016-Jul-18 19:33N 42°23' W 071°01'0 0.1
2016-Jul-18 18:33N 42°23' W 071°02'0 0.0
2016-Jul-18 17:33N 42°23' W 071°02'0 0.0
2016-Jul-18 16:33N 42°23' W 071°02'1 0.8
2016-Jul-18 15:33N 42°23' W 071°03'0 0.0
2016-Jul-18 14:33N 42°23' W 071°03'0 0.0
2016-Jul-18 13:33N 42°23' W 071°03'0 0.0
2016-Jul-18 12:33N 42°23' W 071°03'0 0.0
2016-Jul-18 11:33N 42°23' W 071°03'0 0.0
2016-Jul-18 10:33N 42°23' W 071°03'0 0.0
2016-Jul-18 09:33N 42°23' W 071°03'0 0.0
2016-Jul-18 08:33N 42°23' W 071°03'0 0.0
2016-Jul-18 07:33N 42°23' W 071°03'0 0.0
2016-Jul-18 06:33N 42°23' W 071°03'0 0.0
2016-Jul-18 05:33N 42°23' W 071°03'0 0.0
2016-Jul-18 04:33N 42°23' W 071°03'1 0.8
2016-Jul-18 03:33N 42°23' W 071°02'2 1.6
2016-Jul-18 02:34N 42°22' W 071°02'0 0.1
2016-Jul-18 01:33N 42°22' W 071°02'0 0.0
2016-Jul-18 00:33N 42°22' W 071°02'0 0.0
2016-Jul-17 23:33N 42°22' W 071°02'0 0.0
2016-Jul-17 22:33N 42°22' W 071°02'0 0.0
2016-Jul-17 21:33N 42°22' W 071°02'0 0.0
2016-Jul-17 20:33N 42°22' W 071°02'0 0.0
2016-Jul-17 19:33N 42°22' W 071°02'0 0.1
2016-Jul-17 18:33N 42°21' W 071°02'0 0.0
2016-Jul-17 17:33N 42°21' W 071°02'0 0.0
2016-Jul-17 16:33N 42°21' W 071°02'0 0.0
2016-Jul-17 15:33N 42°21' W 071°02'0 0.0
2016-Jul-17 14:33N 42°21' W 071°02'0 0.1
2016-Jul-17 13:33N 42°21' W 071°02'0 0.1
2016-Jul-17 12:33N 42°21' W 071°02'0 0.1
2016-Jul-17 11:33N 42°22' W 071°02'0 0.1
2016-Jul-17 10:33N 42°21' W 071°02'0 0.0
2016-Jul-17 09:33N 42°21' W 071°02'0 0.0
2016-Jul-17 08:33N 42°21' W 071°02'0 0.0
2016-Jul-17 07:33N 42°21' W 071°02'0 0.0
2016-Jul-17 06:33N 42°21' W 071°02'0 0.0
2016-Jul-17 04:33N 42°21' W 071°02'0 0.0
2016-Jul-17 03:33N 42°21' W 071°02'0 0.0
2016-Jul-17 02:33N 42°21' W 071°02'4 4.0
2016-Jul-17 01:33N 42°20' W 070°57'6 6.2
2016-Jul-17 00:33N 42°22' W 070°49'8 7.8
2016-Jul-16 23:33N 42°16' W 070°41'8 7.6
2016-Jul-16 22:33N 42°09' W 070°37'8 7.5
2016-Jul-16 21:33N 42°02' W 070°33'58 5.6
2016-Jul-16 11:15N 41°20' W 071°26'  
Track history (hours):
 
Tides and Currents Weather Stations Pressure Air Temp Water Temp Dewpoint Dewpoint Depression Visibility Wind Speed Wind Dir Waves Ship Positions

Morton S Bouchard Jr

Owner: BOUCHARD TRANSPORTATION CO INC, MELVILLE, NY. More information available from US FCC via Universal Licensing System and Coast Guard Vessel Documentation Center.

Last reported at 2016-Jul-26 07:33 UTC. Time now 2016-Jul-26 08:22 UTC.
Position N 40°39' W 074°10'.

Length 33 m; draft 6.3 m.

Type: Tug. MMSI: 367006550.

Date/timePositionNaut miles runAvg speedWind from/ knotsBaromVisibWave heightAir tempDewpointWater temp
2016-Jul-26 07:33N 40°39' W 074°10'7 3.4
2016-Jul-26 05:32N 40°33' W 074°15'2 1.1
2016-Jul-26 03:25N 40°35' W 074°13'6 6.5
2016-Jul-26 02:33N 40°39' W 074°08'6 6.3
2016-Jul-26 01:33N 40°41' W 074°00'1 1.2
2016-Jul-26 00:33N 40°41' W 074°01'1 1.3
2016-Jul-25 23:33N 40°40' W 074°02'0 0.0
2016-Jul-25 22:33N 40°40' W 074°02'0 0.0
2016-Jul-25 21:33N 40°40' W 074°02'0 0.0
2016-Jul-25 20:34N 40°40' W 074°02'8 7.8
2016-Jul-25 19:31N 40°37' W 074°12'8 0.8
2016-Jul-25 09:33N 40°29' W 074°15'0 0.0
2016-Jul-25 08:26N 40°29' W 074°15'0 0.0
2016-Jul-25 07:33N 40°29' W 074°15'0 0.0
2016-Jul-25 06:33N 40°29' W 074°15'0 0.0
2016-Jul-25 05:33N 40°30' W 074°15'0 0.1
2016-Jul-25 04:33N 40°30' W 074°15'0 0.0
2016-Jul-25 03:31N 40°30' W 074°15'0 0.0
2016-Jul-25 02:29N 40°30' W 074°15'10 0.8
2016-Jul-24 13:28N 40°39' W 074°10'8 8.4
2016-Jul-24 12:33N 40°42' W 074°00'9 0.4
2016-Jul-23 11:30N 40°48' W 073°52'6 5.9
2016-Jul-23 10:33N 40°45' W 073°58'5 5.0
2016-Jul-23 09:33N 40°40' W 074°02'1 0.6
2016-Jul-23 08:33N 40°40' W 074°02'0 0.0
2016-Jul-23 07:33N 40°40' W 074°02'0 0.5
2016-Jul-23 06:33N 40°40' W 074°03'8 1.9
2016-Jul-23 02:20N 40°36' W 074°12'6 7.2
2016-Jul-23 01:33N 40°39' W 074°06'0 0.3
2016-Jul-23 00:33N 40°39' W 074°06'0 0.0
2016-Jul-22 23:33N 40°39' W 074°06'0 0.0
2016-Jul-22 22:33N 40°39' W 074°06'0 0.0
2016-Jul-22 21:33N 40°39' W 074°06'1 0.7
2016-Jul-22 20:33N 40°39' W 074°07'0 0.0
2016-Jul-22 19:33N 40°39' W 074°07'0 0.0
2016-Jul-22 18:33N 40°39' W 074°07'0 0.0
2016-Jul-22 17:33N 40°39' W 074°07'0 0.0
2016-Jul-22 16:33N 40°39' W 074°07'5 4.6
2016-Jul-22 15:33N 40°37' W 074°12'4 1.6
2016-Jul-22 13:15N 40°33' W 074°13'5 7.0
2016-Jul-22 12:33N 40°38' W 074°12'7 7.0
2016-Jul-22 11:33N 40°40' W 074°03'7 7.1
2016-Jul-22 10:33N 40°46' W 073°57'18 4.3
2016-Jul-22 06:25N 40°56' W 073°37'14 0.5
2016-Jul-21 03:34N 40°48' W 073°53'6 6.0
2016-Jul-21 02:33N 40°44' W 073°58'6 6.1
2016-Jul-21 01:34N 40°39' W 074°03'1 0.8
2016-Jul-21 00:33N 40°38' W 074°03'4 4.3
2016-Jul-20 23:33N 40°39' W 074°09'5 4.9
2016-Jul-20 22:33N 40°35' W 074°13'3 1.4
2016-Jul-20 20:33N 40°37' W 074°12'4 4.0
2016-Jul-20 19:33N 40°39' W 074°07'0 0.0
2016-Jul-20 18:33N 40°39' W 074°07'0 0.0
2016-Jul-20 17:33N 40°39' W 074°07'0 0.0
2016-Jul-20 16:33N 40°39' W 074°07'0 0.0
2016-Jul-20 15:33N 40°39' W 074°07'0 0.0
2016-Jul-20 14:33N 40°39' W 074°07'4 4.4
2016-Jul-20 13:32N 40°36' W 074°12'1 0.5
2016-Jul-20 10:32N 40°35' W 074°13'0 0.1
2016-Jul-20 05:31N 40°35' W 074°12'5 5.6
2016-Jul-20 04:33N 40°39' W 074°07'4 4.0
2016-Jul-20 03:33N 40°40' W 074°02'8 7.7
2016-Jul-20 02:33N 40°47' W 073°56'172 6.3
2016-Jul-18 23:19N 42°13' W 070°39'6 8.0
2016-Jul-18 22:33N 42°18' W 070°44'8 7.9
2016-Jul-18 21:33N 42°23' W 070°52'6 5.7
2016-Jul-18 20:33N 42°20' W 070°59'4 3.8
2016-Jul-18 19:33N 42°23' W 071°01'0 0.1
2016-Jul-18 18:33N 42°23' W 071°02'0 0.0
2016-Jul-18 17:33N 42°23' W 071°02'0 0.0
2016-Jul-18 16:33N 42°23' W 071°02'1 0.8
2016-Jul-18 15:33N 42°23' W 071°03'0 0.0
2016-Jul-18 14:33N 42°23' W 071°03'0 0.0
2016-Jul-18 13:33N 42°23' W 071°03'0 0.0
2016-Jul-18 12:33N 42°23' W 071°03'0 0.0
2016-Jul-18 11:33N 42°23' W 071°03'0 0.0
2016-Jul-18 10:33N 42°23' W 071°03'0 0.0
2016-Jul-18 09:33N 42°23' W 071°03'0 0.0
2016-Jul-18 08:33N 42°23' W 071°03'0 0.0
2016-Jul-18 07:33N 42°23' W 071°03'0 0.0
2016-Jul-18 06:33N 42°23' W 071°03'0 0.0
2016-Jul-18 05:33N 42°23' W 071°03'0 0.0
2016-Jul-18 04:33N 42°23' W 071°03'1 0.8
2016-Jul-18 03:33N 42°23' W 071°02'2 1.6
2016-Jul-18 02:34N 42°22' W 071°02'0 0.1
2016-Jul-18 01:33N 42°22' W 071°02'0 0.0
2016-Jul-18 00:33N 42°22' W 071°02'0 0.0
2016-Jul-17 23:33N 42°22' W 071°02'0 0.0
2016-Jul-17 22:33N 42°22' W 071°02'0 0.0
2016-Jul-17 21:33N 42°22' W 071°02'0 0.0
2016-Jul-17 20:33N 42°22' W 071°02'0 0.0
2016-Jul-17 19:33N 42°22' W 071°02'0 0.1
2016-Jul-17 18:33N 42°21' W 071°02'0 0.0
2016-Jul-17 17:33N 42°21' W 071°02'0 0.0
2016-Jul-17 16:33N 42°21' W 071°02'0 0.0
2016-Jul-17 15:33N 42°21' W 071°02'0 0.0
2016-Jul-17 14:33N 42°21' W 071°02'0 0.1
2016-Jul-17 13:33N 42°21' W 071°02'0 0.1
2016-Jul-17 12:33N 42°21' W 071°02'0 0.1
2016-Jul-17 11:33N 42°22' W 071°02'0 0.1
2016-Jul-17 10:33N 42°21' W 071°02'0 0.0
2016-Jul-17 09:33N 42°21' W 071°02'0 0.0
2016-Jul-17 08:33N 42°21' W 071°02'0 0.0
2016-Jul-17 07:33N 42°21' W 071°02'0 0.0
2016-Jul-17 06:33N 42°21' W 071°02'0 0.0
2016-Jul-17 04:33N 42°21' W 071°02'0 0.0
2016-Jul-17 03:33N 42°21' W 071°02'0 0.0
2016-Jul-17 02:33N 42°21' W 071°02'4 4.0
2016-Jul-17 01:33N 42°20' W 070°57'6 6.2
2016-Jul-17 00:33N 42°22' W 070°49'8 7.8
2016-Jul-16 23:33N 42°16' W 070°41'8 7.6
2016-Jul-16 22:33N 42°09' W 070°37'8 7.5
2016-Jul-16 21:33N 42°02' W 070°33'58 5.6
2016-Jul-16 11:15N 41°20' W 071°26'  

Dump ship's entire track history